الصفحة الرئيسية
METAR-TAF:

METAR-TAF

مطار :

Punta Arenas, تشيلي

دائرة عرض: 53-00S, خط طول: 070-51W, ارتفاع: 37 متر

مراقبة الطقس الحالي

تاريخ ووقت الإصدار 57 دقيقة قبل الساعة 23:00UTC
ريح 21 عقدة من الغرب
درجة الحرارة 7°درجة مئوية
الرطوبة 76%
ضغط 1013 hPa
الرؤية 10 كم أو أكثر
الغيوم لا تقل 1500 م ولا وجود لمزنة ركامية السحاب الأسود

METAR: SCCI 212300Z 26021KT CAVOK 07/03 Q1013 NOSIG

زمن: 19:57 (23:57 UTC)

توقعات

تاريخ ووقت الإصدار 12ساعات و 39 دقيقة قبل الساعة 11:18UTC
التوقعات صالحة من21 الساعة 12 UTC إلى 22 الساعة 12 UTC
ريح 20 عقدة من الغرب/الجنوب الغربي تتزايد حتى 30 عقدة
الرؤية 10 كم أو أكثر
غيوم متفرقة على ارتفاع 3200 قدم
مؤقت
من 21 الساعة 12 UTC إلى 21 الساعة 16 UTC
غيوم مفككة على ارتفاع 2000 قدم
زخات من الأمطار الخفيفة
أصبح
من 21 الساعة 17 UTC إلى 21 الساعة 19 UTC
غيوم قليلة على ارتفاع 4000 قدم
أصبح
من 22 الساعة 00 UTC إلى 22 الساعة 02 UTC
ريح 10 عقدة من الغرب
غيوم متفرقة على ارتفاع 3000 قدم

TAF: SCCI 211118Z 2112/2212 25020G30KT 9999 SCT032 TN03/2204Z TX08/2118Z TEMPO 2112/2116 -SHRA BKN020 BECMG 2117/2119 FEW040 BECMG 2200/2202 28010KT SCT030

أرصاد الطقس والتوقعات من أكثر من 4000 مطار (تقارير الطقس للمطار METAR والتنبؤ بالطقس بالمطارTAF).

المحطات المتاحة هي النقط الصفراء والحمراء على الخريطة.

حرك المؤشر فوق النقطة لمعرفة اسم المحطة.

ثم انقر لمعرفة أرصاد وتوقعات الطقس.

لتغيير الخارطة: اضغط على الأزرار الخضراء مع رمز الصليب الأسود للتكبير. على الزر الأخضر مع شرطة للتصغير، أو على الأسهم الخضراء للخرائط المجاورة.


METAR-TAF: